Time;durP1;ratioP1;P1;durP2;ratioP2;P2;SDS_P1;SDS_P2;PMS_P1;PMS_P2;Temp;Humidity;BMP_temperature;BMP_pressure;BME280_temperature;BME280_humidity;BME280_pressure;Samples;Min_cycle;Max_cycle;Signal;HPM_P1;HPM_P2
2022/07/18 02:05:05;;;;;;;;;;;;;;;23.69;100.00;98923.06;5079787;28;20227;-71
2022/07/18 02:07:40;;;;;;;;;;;;;;;23.63;100.00;98930.66;5077717;28;19947;-71
2022/07/18 02:10:08;;;;;;;;;;;;;;;23.51;100.00;98926.66;5079924;28;19962;-71
2022/07/18 02:12:35;;;;;;;;;;;;;;;23.45;100.00;98925.69;5077361;28;19950;-71
2022/07/18 02:15:04;;;;;;;;;;;;;;;23.37;100.00;98927.25;5076110;28;19947;-71
2022/07/18 02:17:31;;;;;;;;;;;;;;;23.31;100.00;98921.31;5080532;28;19945;-71
2022/07/18 02:19:59;;;;;;;;;;;;;;;23.27;100.00;98920.66;5078955;28;19968;-71
2022/07/18 02:22:26;;;;;;;;;;;;;;;23.23;100.00;98925.69;5078061;28;19951;-71
2022/07/18 02:24:53;;;;;;;;;;;;;;;23.23;100.00;98920.00;5077924;28;19948;-71
2022/07/18 02:27:21;;;;;;;;;;;;;;;23.20;100.00;98920.16;5094231;28;20328;-71
2022/07/18 02:29:48;;;;;;;;;;;;;;;23.18;100.00;98914.88;5075377;28;19952;-71
2022/07/18 02:32:15;;;;;;;;;;;;;;;23.13;100.00;98917.59;5078679;28;20348;-71
2022/07/18 02:34:43;;;;;;;;;;;;;;;23.08;100.00;98915.34;5077347;28;19951;-71
2022/07/18 02:37:10;;;;;;;;;;;;;;;23.04;100.00;98915.47;5091216;28;20337;-71
2022/07/18 02:39:37;;;;;;;;;;;;;;;23.02;100.00;98922.91;5076919;28;19967;-71
2022/07/18 02:42:05;;;;;;;;;;;;;;;22.99;100.00;98921.78;5090176;28;20168;-71
2022/07/18 02:44:32;;;;;;;;;;;;;;;22.97;100.00;98926.34;5082200;28;20339;-71
2022/07/18 02:47:00;;;;;;;;;;;;;;;22.97;100.00;98917.78;5088968;28;19945;-71
2022/07/18 02:49:27;;;;;;;;;;;;;;;22.96;100.00;98919.06;5079970;28;20693;-71
2022/07/18 02:52:04;;;;;;;;;;;;;;;22.94;100.00;98922.38;5086287;28;19948;-71
2022/07/18 02:54:33;;;;;;;;;;;;;;;22.89;100.00;98928.69;5092871;28;19955;-71
2022/07/18 02:57:00;;;;;;;;;;;;;;;22.86;100.00;98923.94;5090042;28;19945;-71
2022/07/18 02:59:28;;;;;;;;;;;;;;;22.80;100.00;98926.56;5093226;28;19964;-71
2022/07/18 03:01:55;;;;;;;;;;;;;;;22.76;100.00;98925.94;5084892;28;20247;-71
2022/07/18 03:04:23;;;;;;;;;;;;;;;22.76;100.00;98925.13;5124205;27;19975;-71
2022/07/18 03:06:51;;;;;;;;;;;;;;;22.76;100.00;98925.13;5128147;27;19944;-71
2022/07/18 03:09:18;;;;;;;;;;;;;;;22.75;100.00;98920.66;5132311;27;19954;-71
2022/07/18 03:11:46;;;;;;;;;;;;;;;22.73;100.00;98918.28;5135826;27;19958;-71
2022/07/18 03:14:13;;;;;;;;;;;;;;;22.71;100.00;98929.38;5132999;27;19951;-71
2022/07/18 03:16:41;;;;;;;;;;;;;;;22.73;100.00;98932.53;5124055;27;20367;-71
2022/07/18 03:19:08;;;;;;;;;;;;;;;22.62;100.00;98935.00;5133298;27;19970;-71
2022/07/18 03:21:35;;;;;;;;;;;;;;;22.52;100.00;98935.38;5130086;27;20369;-71
2022/07/18 03:24:03;;;;;;;;;;;;;;;22.48;100.00;98938.34;5121152;27;19947;-71
2022/07/18 03:26:30;;;;;;;;;;;;;;;22.41;100.00;98930.06;5120289;27;20332;-71
2022/07/18 03:28:57;;;;;;;;;;;;;;;22.36;100.00;98935.53;5134667;27;19954;-71
2022/07/18 03:31:24;;;;;;;;;;;;;;;22.28;100.00;98937.84;5126913;27;20233;-71
2022/07/18 03:33:52;;;;;;;;;;;;;;;22.25;100.00;98938.78;5122785;27;19949;-71
2022/07/18 03:36:19;;;;;;;;;;;;;;;22.28;100.00;98939.91;5116857;28;20359;-71
2022/07/18 03:38:46;;;;;;;;;;;;;;;22.29;100.00;98941.50;5116105;28;19949;-71
2022/07/18 03:41:14;;;;;;;;;;;;;;;22.29;100.00;98945.16;5117859;27;19948;-71
2022/07/18 03:43:41;;;;;;;;;;;;;;;22.24;100.00;98940.84;5131802;27;19943;-71
2022/07/18 03:46:08;;;;;;;;;;;;;;;22.19;100.00;98943.47;5135911;27;19956;-71
2022/07/18 03:48:35;;;;;;;;;;;;;;;22.13;100.00;98939.63;5116790;27;20356;-71
2022/07/18 03:51:03;;;;;;;;;;;;;;;22.13;100.00;98939.63;5126848;27;19954;-71
2022/07/18 03:53:31;;;;;;;;;;;;;;;22.08;100.00;98937.34;5107425;28;19950;-71
2022/07/18 03:55:58;;;;;;;;;;;;;;;22.00;100.00;98936.00;5132785;27;19943;-71
2022/07/18 03:58:25;;;;;;;;;;;;;;;21.94;100.00;98943.53;5137184;27;19955;-71
2022/07/18 04:00:53;;;;;;;;;;;;;;;21.86;100.00;98942.97;5136040;27;19975;-71
2022/07/18 04:03:20;;;;;;;;;;;;;;;21.79;100.00;98945.25;5108927;27;19972;-71
2022/07/18 04:05:47;;;;;;;;;;;;;;;21.76;100.00;98944.09;5129801;27;20252;-71
2022/07/18 04:08:15;;;;;;;;;;;;;;;21.74;100.00;98942.97;5124234;27;20202;-71
2022/07/18 04:10:43;;;;;;;;;;;;;;;21.76;100.00;98949.00;5136306;27;19946;-71
2022/07/18 04:13:10;;;;;;;;;;;;;;;21.82;100.00;98950.00;5128404;27;19949;-71
2022/07/18 04:15:37;;;;;;;;;;;;;;;21.85;100.00;98954.81;5129470;27;19958;-71
2022/07/18 04:18:06;;;;;;;;;;;;;;;21.97;100.00;98956.84;5131595;27;19946;-71
2022/07/18 04:20:33;;;;;;;;;;;;;;;22.00;100.00;98955.94;5117318;27;19966;-71
2022/07/18 04:23:02;;;;;;;;;;;;;;;21.99;100.00;98962.88;5118858;27;19976;-71
2022/07/18 04:25:33;;;;;;;;;;;;;;;22.05;100.00;98953.31;5111410;28;19949;-71
2022/07/18 04:28:01;;;;;;;;;;;;;;;22.24;100.00;98954.28;5111064;27;19947;-71
2022/07/18 04:30:29;;;;;;;;;;;;;;;22.42;100.00;98962.19;5118071;27;20228;-71
2022/07/18 04:32:56;;;;;;;;;;;;;;;22.59;100.00;98958.72;5112773;28;19947;-71
2022/07/18 04:35:23;;;;;;;;;;;;;;;22.65;100.00;98964.63;5115302;27;19947;-71
2022/07/18 04:37:51;;;;;;;;;;;;;;;22.75;100.00;98955.69;5111076;28;19959;-71
2022/07/18 04:40:19;;;;;;;;;;;;;;;22.82;100.00;98963.16;5111231;28;19966;-71
2022/07/18 04:42:46;;;;;;;;;;;;;;;23.06;100.00;98967.13;5114275;28;20254;-71
2022/07/18 04:45:15;;;;;;;;;;;;;;;23.38;100.00;98965.91;5114480;28;19941;-71
2022/07/18 04:47:42;;;;;;;;;;;;;;;23.68;100.00;98970.00;5109091;28;19956;-71
2022/07/18 04:50:10;;;;;;;;;;;;;;;24.06;100.00;98971.25;5113713;28;19943;-71
2022/07/18 04:52:41;;;;;;;;;;;;;;;24.51;100.00;98973.41;5135870;28;19947;-71
2022/07/18 04:55:09;;;;;;;;;;;;;;;24.78;100.00;98976.31;5116629;28;19945;-71
2022/07/18 04:57:37;;;;;;;;;;;;;;;25.06;100.00;98976.28;5111136;28;19948;-71
2022/07/18 05:00:05;;;;;;;;;;;;;;;25.46;100.00;98970.31;5134425;27;19967;-71
2022/07/18 05:02:33;;;;;;;;;;;;;;;25.88;100.00;98983.34;5107561;27;19948;-71
2022/07/18 05:05:00;;;;;;;;;;;;;;;26.26;100.00;98982.69;5136953;27;20347;-71
2022/07/18 05:07:27;;;;;;;;;;;;;;;26.70;100.00;98986.47;5139342;27;19955;-71
2022/07/18 05:09:55;;;;;;;;;;;;;;;27.18;100.00;98984.34;5134232;27;19945;-71
2022/07/18 05:12:23;;;;;;;;;;;;;;;27.51;100.00;98981.28;5124581;27;20361;-71
2022/07/18 05:14:50;;;;;;;;;;;;;;;28.02;100.00;98986.59;5125231;27;19952;-71
2022/07/18 05:17:20;;;;;;;;;;;;;;;28.18;100.00;98980.28;5119976;27;20339;-71
2022/07/18 05:19:48;;;;;;;;;;;;;;;28.36;97.45;98985.78;5125264;27;19954;-71
2022/07/18 05:22:15;;;;;;;;;;;;;;;28.50;98.40;98984.13;5121836;27;19946;-71
2022/07/18 05:24:42;;;;;;;;;;;;;;;28.92;94.68;98987.28;5125236;27;19980;-71
2022/07/18 05:27:10;;;;;;;;;;;;;;;29.28;94.02;98983.78;5134821;27;19952;-71
2022/07/18 05:29:37;;;;;;;;;;;;;;;29.27;95.22;98981.41;5119700;28;19947;-71
2022/07/18 05:32:04;;;;;;;;;;;;;;;29.10;92.16;98981.19;5119058;28;19955;-71
2022/07/18 05:34:32;;;;;;;;;;;;;;;28.44;95.63;98980.38;5120016;27;19940;-70
2022/07/18 05:36:59;;;;;;;;;;;;;;;28.00;98.05;98981.31;5120859;27;19943;-70
2022/07/18 05:39:26;;;;;;;;;;;;;;;27.78;100.00;98978.06;5131916;27;19950;-70
2022/07/18 05:41:53;;;;;;;;;;;;;;;27.65;100.00;98979.69;5123727;27;19967;-69
2022/07/18 05:44:21;;;;;;;;;;;;;;;27.31;100.00;98984.03;5118507;27;19944;-71
2022/07/18 05:46:49;;;;;;;;;;;;;;;27.36;100.00;98986.22;5131807;27;19947;-71
2022/07/18 05:49:16;;;;;;;;;;;;;;;27.12;100.00;98988.41;5139567;27;19945;-70
2022/07/18 05:51:43;;;;;;;;;;;;;;;27.30;100.00;98986.13;5130651;27;19952;-73
2022/07/18 05:54:12;;;;;;;;;;;;;;;27.29;100.00;98989.50;5121003;27;19945;-71
2022/07/18 05:56:39;;;;;;;;;;;;;;;27.25;100.00;98988.88;5124977;27;19955;-71
2022/07/18 05:59:07;;;;;;;;;;;;;;;27.46;100.00;98990.63;5126644;27;19949;-71
2022/07/18 06:01:34;;;;;;;;;;;;;;;27.33;100.00;98984.34;5121981;27;19987;-72
2022/07/18 06:04:01;;;;;;;;;;;;;;;27.30;100.00;98982.44;5121420;27;19963;-70
2022/07/18 06:06:29;;;;;;;;;;;;;;;27.55;100.00;98981.88;5125551;27;20374;-70
2022/07/18 06:08:56;;;;;;;;;;;;;;;27.77;100.00;98990.06;5130194;27;20271;-70
2022/07/18 06:11:23;;;;;;;;;;;;;;;27.92;100.00;98985.91;5137957;27;19949;-70
2022/07/18 06:13:51;;;;;;;;;;;;;;;27.85;100.00;98982.63;5138060;27;20235;-70
2022/07/18 06:16:18;;;;;;;;;;;;;;;28.18;98.37;98986.03;5137927;27;20223;-70
2022/07/18 06:18:45;;;;;;;;;;;;;;;28.02;98.83;98989.47;5138482;27;19947;-70
2022/07/18 06:21:12;;;;;;;;;;;;;;;28.20;97.98;98994.16;5137346;27;20004;-71
2022/07/18 06:23:40;;;;;;;;;;;;;;;28.14;98.76;98999.03;5123754;27;19951;-70
2022/07/18 06:26:07;;;;;;;;;;;;;;;28.26;100.00;98995.84;5138742;27;19956;-70
2022/07/18 06:28:34;;;;;;;;;;;;;;;27.88;100.00;98993.13;5137355;27;20329;-70
2022/07/18 06:31:01;;;;;;;;;;;;;;;28.06;100.00;98989.25;5138630;27;19956;-70
2022/07/18 06:33:29;;;;;;;;;;;;;;;28.03;100.00;98993.91;5137589;27;19948;-70
2022/07/18 06:35:56;;;;;;;;;;;;;;;28.15;100.00;98992.78;5138408;27;19944;-70
2022/07/18 06:38:24;;;;;;;;;;;;;;;28.10;100.00;98990.63;5120466;27;19961;-70
2022/07/18 06:40:51;;;;;;;;;;;;;;;27.98;100.00;98991.72;5137840;27;19960;-70
2022/07/18 06:43:21;;;;;;;;;;;;;;;28.16;100.00;98996.44;5138769;27;19951;-70
2022/07/18 06:45:50;;;;;;;;;;;;;;;28.04;100.00;99000.47;5137663;27;19950;-70
2022/07/18 06:48:17;;;;;;;;;;;;;;;28.17;100.00;99001.69;5137112;27;19948;-70
2022/07/18 06:50:44;;;;;;;;;;;;;;;28.34;100.00;99001.97;5137291;27;20358;-70
2022/07/18 06:53:12;;;;;;;;;;;;;;;28.49;100.00;99003.47;5137597;27;20461;-70
2022/07/18 06:55:39;;;;;;;;;;;;;;;28.48;100.00;99006.84;5138534;27;19952;-71
2022/07/18 06:58:07;;;;;;;;;;;;;;;28.58;100.00;99008.31;5138170;27;20360;-71
2022/07/18 07:00:34;;;;;;;;;;;;;;;28.45;100.00;99010.72;5137197;27;19955;-75
2022/07/18 07:03:01;;;;;;;;;;;;;;;28.60;100.00;99006.53;5137350;27;19969;-74
2022/07/18 07:05:29;;;;;;;;;;;;;;;28.78;100.00;99010.41;5137437;27;19954;-74
2022/07/18 07:07:56;;;;;;;;;;;;;;;28.62;100.00;99006.81;5137796;27;19941;-74
2022/07/18 07:10:23;;;;;;;;;;;;;;;28.52;100.00;99007.41;5135313;27;19957;-74
2022/07/18 07:12:52;;;;;;;;;;;;;;;28.53;100.00;99009.81;5137418;27;19942;-74
2022/07/18 07:15:20;;;;;;;;;;;;;;;28.76;100.00;99005.16;5136777;27;20331;-74
2022/07/18 07:17:48;;;;;;;;;;;;;;;28.91;99.62;99010.81;5124979;27;19949;-74
2022/07/18 07:20:21;;;;;;;;;;;;;;;28.72;100.00;99015.28;5115680;27;20240;-74
2022/07/18 07:22:53;;;;;;;;;;;;;;;28.62;99.32;99008.91;5118995;27;19968;-75
2022/07/18 07:25:26;;;;;;;;;;;;;;;28.13;100.00;99012.63;5127835;27;19952;-74
2022/07/18 07:27:53;;;;;;;;;;;;;;;28.19;100.00;99012.72;5125049;27;19955;-74
2022/07/18 07:30:21;;;;;;;;;;;;;;;28.42;100.00;99017.47;5117910;27;19949;-74
2022/07/18 07:32:50;;;;;;;;;;;;;;;28.22;100.00;99009.63;5118273;27;19952;-74
2022/07/18 07:35:19;;;;;;;;;;;;;;;27.78;100.00;99014.66;5123313;27;19945;-74
2022/07/18 07:37:50;;;;;;;;;;;;;;;27.95;100.00;99010.75;5120225;27;19944;-74
2022/07/18 07:40:17;;;;;;;;;;;;;;;28.16;100.00;99007.97;5113515;27;19950;-74
2022/07/18 07:42:45;;;;;;;;;;;;;;;27.95;100.00;99004.22;5113852;27;19971;-74
2022/07/18 07:45:13;;;;;;;;;;;;;;;28.11;100.00;99003.72;5117002;27;19951;-70
2022/07/18 07:47:40;;;;;;;;;;;;;;;28.14;100.00;99002.72;5121494;27;19948;-70
2022/07/18 07:50:09;;;;;;;;;;;;;;;27.79;100.00;99011.28;5121368;27;19947;-70
2022/07/18 07:52:36;;;;;;;;;;;;;;;28.08;100.00;98998.16;5114204;27;19941;-70
2022/07/18 07:55:04;;;;;;;;;;;;;;;27.86;100.00;98999.38;5116716;27;19943;-70
2022/07/18 07:57:32;;;;;;;;;;;;;;;28.02;100.00;99005.91;5101547;27;19949;-70
2022/07/18 08:00:02;;;;;;;;;;;;;;;27.75;100.00;98995.53;5103099;27;19942;-70
2022/07/18 08:02:48;;;;;;;;;;;;;;;27.91;100.00;99000.75;5102359;27;19975;-70
2022/07/18 08:05:18;;;;;;;;;;;;;;;27.85;100.00;99008.50;5119142;27;19958;-70
2022/07/18 08:07:46;;;;;;;;;;;;;;;27.94;100.00;99000.56;5118339;27;19944;-70
2022/07/18 08:10:13;;;;;;;;;;;;;;;28.20;100.00;99017.16;5126687;27;19956;-70
2022/07/18 08:12:40;;;;;;;;;;;;;;;27.76;100.00;99009.41;5130033;27;19955;-70
2022/07/18 08:15:08;;;;;;;;;;;;;;;27.93;100.00;99003.91;5122440;27;20370;-70
2022/07/18 08:17:36;;;;;;;;;;;;;;;28.26;100.00;99009.41;5118780;27;19950;-71
2022/07/18 08:20:03;;;;;;;;;;;;;;;28.14;100.00;99017.09;5124625;27;20250;-71
2022/07/18 08:22:31;;;;;;;;;;;;;;;28.30;100.00;99007.91;5114113;27;19964;-70
2022/07/18 08:24:58;;;;;;;;;;;;;;;28.30;100.00;99007.91;5109043;27;19948;-70
2022/07/18 08:27:26;;;;;;;;;;;;;;;28.38;100.00;99002.53;5123553;27;19950;-70
2022/07/18 08:29:53;;;;;;;;;;;;;;;28.40;100.00;99006.50;5116637;27;19951;-70
2022/07/18 08:32:33;;;;;;;;;;;;;;;28.51;100.00;99005.84;5111635;28;19946;-70
2022/07/18 08:35:04;;;;;;;;;;;;;;;28.74;100.00;99007.75;5114462;28;19959;-70
2022/07/18 08:37:40;;;;;;;;;;;;;;;28.66;100.00;99005.81;5114416;28;20030;-70
2022/07/18 08:40:09;;;;;;;;;;;;;;;28.76;100.00;99004.38;5117977;28;19945;-70
2022/07/18 08:42:38;;;;;;;;;;;;;;;28.94;100.00;98995.41;5117310;28;19965;-70
2022/07/18 08:45:12;;;;;;;;;;;;;;;28.96;100.00;99005.13;5115432;28;19955;-70
2022/07/18 08:47:39;;;;;;;;;;;;;;;28.73;100.00;98999.63;5109957;28;19949;-71
2022/07/18 08:50:08;;;;;;;;;;;;;;;28.90;100.00;99003.50;5100207;28;20254;-71
2022/07/18 08:52:37;;;;;;;;;;;;;;;28.90;100.00;99001.41;5117040;28;19950;-71
2022/07/18 08:55:21;;;;;;;;;;;;;;;28.75;100.00;99012.22;5118763;28;19955;-70
2022/07/18 08:57:55;;;;;;;;;;;;;;;28.88;100.00;99006.88;5113299;28;19947;-71
2022/07/18 09:00:22;;;;;;;;;;;;;;;28.76;100.00;99010.13;5114490;28;19948;-71
2022/07/18 09:02:56;;;;;;;;;;;;;;;28.62;100.00;99015.44;5114532;28;19965;-71
2022/07/18 09:05:23;;;;;;;;;;;;;;;28.47;100.00;99008.13;5114439;28;19947;-70
2022/07/18 09:08:22;;;;;;;;;;;;;;;28.75;100.00;99011.41;5114759;28;20327;-70
2022/07/18 09:10:56;;;;;;;;;;;;;;;28.89;100.00;99008.47;5114429;28;19944;-70
2022/07/18 09:13:29;;;;;;;;;;;;;;;29.04;100.00;99009.16;5115647;28;19948;-71
2022/07/18 09:15:59;;;;;;;;;;;;;;;28.51;100.00;99011.63;5114824;28;19946;-70
2022/07/18 09:18:31;;;;;;;;;;;;;;;28.54;100.00;99016.34;5113879;28;19948;-70
2022/07/18 09:21:08;;;;;;;;;;;;;;;28.57;100.00;99013.25;5113883;28;19959;-70
2022/07/18 09:23:37;;;;;;;;;;;;;;;28.79;99.36;99014.88;5115449;28;19962;-71
2022/07/18 09:26:07;;;;;;;;;;;;;;;28.88;100.00;99015.50;5116683;28;20375;-71
2022/07/18 09:28:47;;;;;;;;;;;;;;;28.95;99.44;99017.97;6070516;22;19967;31
2022/07/18 09:31:34;;;;;;;;;;;;;;;29.02;98.60;99023.28;4955670;29;20259;-70
2022/07/18 09:34:03;;;;;;;;;;;;;;;29.08;100.00;99015.47;4960756;28;19952;-70
2022/07/18 09:36:33;;;;;;;;;;;;;;;29.15;97.42;99020.00;4953923;28;19953;-70
2022/07/18 09:39:01;;;;;;;;;;;;;;;28.72;96.54;99024.72;4951945;28;19955;-70
2022/07/18 09:41:30;;;;;;;;;;;;;;;29.14;92.67;99007.72;4956133;28;19944;-71
2022/07/18 09:43:57;;;;;;;;;;;;;;;29.12;91.93;99018.94;4957645;28;19955;-71
2022/07/18 09:46:25;;;;;;;;;;;;;;;28.69;91.37;99017.09;4957094;28;19956;-70
2022/07/18 09:49:08;;;;;;;;;;;;;;;28.95;90.38;99009.31;4967967;28;19957;-70
2022/07/18 09:51:36;;;;;;;;;;;;;;;29.16;87.51;99016.63;4963616;28;19947;-70
2022/07/18 09:54:03;;;;;;;;;;;;;;;29.04;92.33;99005.47;4962269;28;19951;-70
2022/07/18 09:56:33;;;;;;;;;;;;;;;28.85;88.33;99007.91;4961981;28;19947;-70
2022/07/18 09:59:00;;;;;;;;;;;;;;;29.23;93.59;99003.88;4960555;29;20211;-70
2022/07/18 10:01:28;;;;;;;;;;;;;;;29.27;89.85;99001.59;4960069;28;19956;-70
2022/07/18 10:03:55;;;;;;;;;;;;;;;29.34;88.52;99006.09;4970244;28;20258;-69
2022/07/18 10:06:23;;;;;;;;;;;;;;;29.33;84.82;99019.72;4964398;28;19947;-68
2022/07/18 10:08:53;;;;;;;;;;;;;;;29.21;82.11;99018.81;4960447;29;19974;-68
2022/07/18 10:11:20;;;;;;;;;;;;;;;29.31;82.84;99007.09;4960158;29;19951;-68
2022/07/18 10:13:48;;;;;;;;;;;;;;;29.23;86.08;99007.56;4960410;28;19954;-68
2022/07/18 10:16:16;;;;;;;;;;;;;;;29.39;89.77;98999.59;4962405;28;19946;-68
2022/07/18 10:18:43;;;;;;;;;;;;;;;29.54;85.75;99006.03;4960562;28;20366;-68
2022/07/18 10:21:15;;;;;;;;;;;;;;;29.60;81.18;99004.78;4959996;29;19957;-68
2022/07/18 10:23:43;;;;;;;;;;;;;;;29.60;81.09;98996.13;4959575;28;19964;-68
2022/07/18 10:26:21;;;;;;;;;;;;;;;29.56;83.20;98992.69;4960846;28;19954;-68
2022/07/18 10:28:54;;;;;;;;;;;;;;;29.69;77.98;99009.56;4959182;28;19956;-68
2022/07/18 10:31:23;;;;;;;;;;;;;;;29.69;76.78;98995.16;4969044;28;19948;-68
2022/07/18 10:33:51;;;;;;;;;;;;;;;29.76;79.38;98988.94;4954203;28;19982;-68
2022/07/18 10:36:19;;;;;;;;;;;;;;;29.86;72.97;98994.00;4958823;28;19972;-68
2022/07/18 10:39:08;;;;;;;;;;;;;;;29.81;76.10;98989.00;4959834;28;19945;-68
2022/07/18 10:41:41;;;;;;;;;;;;;;;29.67;74.25;98981.25;4956679;28;20289;-68
2022/07/18 10:44:41;;;;;;;;;;;;;;;29.77;72.17;98996.28;4958918;29;19963;-68
2022/07/18 10:47:12;;;;;;;;;;;;;;;29.62;69.36;98990.63;4943695;28;19957;-68
2022/07/18 10:49:45;;;;;;;;;;;;;;;29.64;66.81;98993.78;4979082;28;19953;-69
2022/07/18 10:52:28;;;;;;;;;;;;;;;29.61;68.19;98989.06;4966114;28;19946;-68
2022/07/18 10:55:16;;;;;;;;;;;;;;;29.84;70.33;98978.53;4959041;28;19954;-68
2022/07/18 10:57:49;;;;;;;;;;;;;;;29.98;68.85;98983.34;4959258;28;19946;-68
2022/07/18 11:00:24;;;;;;;;;;;;;;;29.71;69.05;98975.25;4957503;28;19977;-68
2022/07/18 11:03:00;;;;;;;;;;;;;;;29.83;72.05;98977.72;4957864;28;19968;-68
2022/07/18 11:05:27;;;;;;;;;;;;;;;30.11;69.80;98980.81;4958472;28;20324;-68
2022/07/18 11:07:57;;;;;;;;;;;;;;;30.22;74.62;98978.03;4959131;28;19949;-68
2022/07/18 11:10:50;;;;;;;;;;;;;;;30.20;68.84;98966.19;4958549;28;19952;-68
2022/07/18 11:13:32;;;;;;;;;;;;;;;30.30;67.02;98961.78;4951258;28;19959;-69
2022/07/18 11:16:07;;;;;;;;;;;;;;;30.03;71.83;98962.41;4957418;28;19946;-69
2022/07/18 11:18:41;;;;;;;;;;;;;;;30.07;73.13;98956.41;4958022;28;20351;-69
2022/07/18 11:21:14;;;;;;;;;;;;;;;30.19;72.28;98955.16;4964253;28;19951;-68
2022/07/18 11:23:42;;;;;;;;;;;;;;;30.35;73.81;98955.28;4959167;28;19967;-68
2022/07/18 11:26:14;;;;;;;;;;;;;;;30.30;68.93;98961.78;4958448;28;19946;-69
2022/07/18 11:28:41;;;;;;;;;;;;;;;30.33;71.48;98954.97;4961593;28;19950;-69
2022/07/18 11:31:10;;;;;;;;;;;;;;;30.26;73.63;98961.25;4958693;28;20217;-69
2022/07/18 11:33:40;;;;;;;;;;;;;;;30.27;68.15;98954.19;4958191;29;20245;-69
2022/07/18 11:36:12;;;;;;;;;;;;;;;30.36;71.90;98965.53;4958460;28;19947;-69
2022/07/18 11:38:49;;;;;;;;;;;;;;;30.32;72.63;98947.63;4958961;29;19948;-69
2022/07/18 11:41:17;;;;;;;;;;;;;;;30.53;74.30;98945.41;4955458;29;20247;-68
2022/07/18 11:43:45;;;;;;;;;;;;;;;30.30;71.11;98941.59;4955693;28;19966;-68
2022/07/18 11:46:14;;;;;;;;;;;;;;;30.06;67.99;98938.31;4958172;28;19963;-68
2022/07/18 11:48:44;;;;;;;;;;;;;;;30.12;69.83;98935.47;4958455;29;19951;-68
2022/07/18 11:51:19;;;;;;;;;;;;;;;30.18;68.52;98937.06;4958577;28;19947;-69
2022/07/18 11:53:47;;;;;;;;;;;;;;;30.16;71.70;98933.09;4956274;28;20311;-69
2022/07/18 11:56:14;;;;;;;;;;;;;;;30.40;68.26;98931.44;4958868;28;19977;-69
2022/07/18 11:58:42;;;;;;;;;;;;;;;30.61;75.41;98929.16;4956923;28;19950;-69
2022/07/18 12:01:11;;;;;;;;;;;;;;;30.40;65.93;98939.28;4955353;28;19977;-69
2022/07/18 12:03:43;;;;;;;;;;;;;;;30.37;69.95;98928.81;4956186;28;20257;-69
2022/07/18 12:06:18;;;;;;;;;;;;;;;30.42;66.57;98928.06;4955566;28;20389;-69
2022/07/18 12:08:50;;;;;;;;;;;;;;;30.47;72.04;98925.16;4952545;28;20287;-69
2022/07/18 12:11:27;;;;;;;;;;;;;;;30.59;72.00;98919.44;4957289;28;19943;-69
2022/07/18 12:13:59;;;;;;;;;;;;;;;30.57;67.19;98917.06;4957741;28;19955;-69
2022/07/18 12:16:33;;;;;;;;;;;;;;;30.45;68.27;98924.91;4956293;28;19957;-69
2022/07/18 12:19:07;;;;;;;;;;;;;;;30.51;68.04;98916.28;4938875;29;20335;-69
2022/07/18 12:21:46;;;;;;;;;;;;;;;30.67;70.37;98914.72;4958114;28;19951;-68
2022/07/18 12:24:37;;;;;;;;;;;;;;;30.55;72.18;98911.03;4957828;29;19974;-69
2022/07/18 12:27:08;;;;;;;;;;;;;;;30.62;70.37;98901.84;4949402;28;20245;-69
2022/07/18 12:29:54;;;;;;;;;;;;;;;30.81;67.91;98913.75;4939883;29;19976;-69
2022/07/18 12:32:25;;;;;;;;;;;;;;;30.76;67.66;98905.84;4953943;28;19963;-69
2022/07/18 12:34:53;;;;;;;;;;;;;;;30.59;69.26;98899.25;4953154;28;19951;-69
2022/07/18 12:37:27;;;;;;;;;;;;;;;30.55;68.27;98899.47;4959137;28;20351;-69
2022/07/18 12:39:58;;;;;;;;;;;;;;;30.70;70.05;98900.06;4948214;28;20225;-68
2022/07/18 12:42:46;;;;;;;;;;;;;;;30.74;70.22;98883.25;4954318;28;20351;-68
2022/07/18 12:45:13;;;;;;;;;;;;;;;30.79;68.23;98887.50;4957788;28;19949;-68
2022/07/18 12:47:41;;;;;;;;;;;;;;;30.81;67.97;98874.06;4956955;28;19961;-69
2022/07/18 12:50:09;;;;;;;;;;;;;;;30.72;70.55;98885.09;4960247;28;20354;-69
2022/07/18 12:52:40;;;;;;;;;;;;;;;30.61;73.57;98879.28;4956012;28;19955;-69
2022/07/18 12:55:07;;;;;;;;;;;;;;;30.56;65.84;98877.97;4954425;29;19956;-69
2022/07/18 12:57:34;;;;;;;;;;;;;;;30.54;67.53;98869.81;4951723;28;20344;-69
2022/07/18 13:00:02;;;;;;;;;;;;;;;30.77;70.71;98867.00;4956720;29;19956;-69
2022/07/18 13:02:30;;;;;;;;;;;;;;;30.67;65.80;98869.31;4954775;28;20369;-69
2022/07/18 13:04:57;;;;;;;;;;;;;;;30.70;66.57;98876.97;4956896;28;19966;-69
2022/07/18 13:07:24;;;;;;;;;;;;;;;30.93;62.76;98858.41;4956855;28;19950;-68
2022/07/18 13:09:51;;;;;;;;;;;;;;;31.00;62.27;98854.19;4957014;28;20335;-68
2022/07/18 13:12:19;;;;;;;;;;;;;;;30.89;65.00;98857.84;4958627;28;19956;-69
2022/07/18 13:14:46;;;;;;;;;;;;;;;31.02;62.31;98861.03;4956326;28;19977;-69
2022/07/18 13:17:13;;;;;;;;;;;;;;;30.84;63.73;98846.25;4953657;28;19953;-69
2022/07/18 13:19:40;;;;;;;;;;;;;;;30.84;62.38;98852.03;4954665;28;20369;-69
2022/07/18 13:22:08;;;;;;;;;;;;;;;30.76;63.48;98848.91;4957138;28;19954;-69
2022/07/18 13:24:36;;;;;;;;;;;;;;;30.92;63.52;98841.56;4961075;28;19967;-69
2022/07/18 13:27:04;;;;;;;;;;;;;;;31.00;62.68;98842.66;4957319;28;20428;-69
2022/07/18 13:29:32;;;;;;;;;;;;;;;31.12;56.65;98847.91;4958355;28;19975;-69
2022/07/18 13:32:00;;;;;;;;;;;;;;;31.23;65.10;98844.22;4959568;28;19949;-69
2022/07/18 13:34:28;;;;;;;;;;;;;;;31.24;64.78;98842.13;4951460;28;19995;-68
2022/07/18 13:36:55;;;;;;;;;;;;;;;31.27;64.08;98833.19;4955162;28;19959;-67
2022/07/18 13:39:22;;;;;;;;;;;;;;;31.09;62.42;98834.50;4958695;28;20223;-69
2022/07/18 13:41:51;;;;;;;;;;;;;;;31.16;61.50;98836.06;4958161;28;20371;-69
2022/07/18 13:44:19;;;;;;;;;;;;;;;31.00;67.46;98837.66;4955910;28;19971;-70
2022/07/18 13:46:46;;;;;;;;;;;;;;;31.10;64.21;98833.22;4958304;29;19958;-70
2022/07/18 13:49:16;;;;;;;;;;;;;;;31.17;64.80;98823.22;4965935;28;19947;-70
2022/07/18 13:51:43;;;;;;;;;;;;;;;31.17;64.59;98823.22;4959902;28;19957;-70
2022/07/18 13:54:11;;;;;;;;;;;;;;;31.18;66.92;98825.56;4960095;28;20359;-70
2022/07/18 13:56:38;;;;;;;;;;;;;;;31.28;62.47;98816.66;4961337;28;19948;-70
2022/07/18 13:59:05;;;;;;;;;;;;;;;31.28;63.29;98805.84;4962806;28;19949;-70
2022/07/18 14:01:33;;;;;;;;;;;;;;;31.34;60.00;98809.53;4962082;28;19946;-70
2022/07/18 14:04:00;;;;;;;;;;;;;;;31.28;61.99;98808.75;4962612;28;19967;-69
2022/07/18 14:06:27;;;;;;;;;;;;;;;31.20;61.11;98805.59;4960280;28;19953;-70
2022/07/18 14:08:55;;;;;;;;;;;;;;;31.08;60.47;98800.38;4961159;29;19947;-69
2022/07/18 14:11:22;;;;;;;;;;;;;;;30.97;59.87;98806.13;4961643;28;20337;-70
2022/07/18 14:13:49;;;;;;;;;;;;;;;31.07;63.45;98799.56;4959576;28;19952;-70
2022/07/18 14:16:16;;;;;;;;;;;;;;;31.25;58.84;98806.94;4967729;28;19948;-69
2022/07/18 14:18:44;;;;;;;;;;;;;;;31.19;57.89;98798.25;4962046;28;20244;-69
2022/07/18 14:21:11;;;;;;;;;;;;;;;31.31;56.71;98804.00;4961030;28;20356;-69
2022/07/18 14:23:43;;;;;;;;;;;;;;;31.22;56.72;98793.53;4963319;28;19973;-70
2022/07/18 14:26:10;;;;;;;;;;;;;;;31.31;60.75;98789.56;4960168;28;19947;-68
2022/07/18 14:28:38;;;;;;;;;;;;;;;31.25;58.44;98783.03;4960221;28;20318;-71
2022/07/18 14:31:05;;;;;;;;;;;;;;;31.31;59.94;98784.56;4958086;28;19970;-71
2022/07/18 14:33:33;;;;;;;;;;;;;;;31.30;59.33;98785.88;4957933;28;19960;-72
2022/07/18 14:36:01;;;;;;;;;;;;;;;31.13;67.76;98776.44;4959262;29;19947;-69
2022/07/18 14:38:28;;;;;;;;;;;;;;;31.17;nan;98774.09;4962652;28;19953;-69
2022/07/18 14:40:56;;;;;;;;;;;;;;;31.16;60.04;98769.63;4962586;28;19950;-70
2022/07/18 14:43:24;;;;;;;;;;;;;;;31.12;65.48;98766.22;4960686;28;19950;-70
2022/07/18 14:45:51;;;;;;;;;;;;;;;31.21;61.01;98760.16;4960050;28;19962;-70
2022/07/18 14:48:28;;;;;;;;;;;;;;;31.30;60.67;98762.75;4957911;28;19948;-69
2022/07/18 14:50:55;;;;;;;;;;;;;;;31.15;61.48;98760.16;4961393;28;20347;-69
2022/07/18 14:53:22;;;;;;;;;;;;;;;30.94;62.93;98755.97;4953122;28;19974;-69
2022/07/18 14:55:50;;;;;;;;;;;;;;;30.95;61.60;98753.88;4959976;28;19949;-69